Time;durP1;ratioP1;P1;durP2;ratioP2;P2;SDS_P1;SDS_P2;PMS_P1;PMS_P2;Temp;Humidity;BMP_temperature;BMP_pressure;BME280_temperature;BME280_humidity;BME280_pressure;Samples;Min_cycle;Max_cycle;Signal;HPM_P1;HPM_P2
2023/04/14 00:02:09;;;;;;;3.90;2.07;;;;;;;;;;5068526;28;20180;-53
2023/04/14 00:04:36;;;;;;;2.20;1.80;;;;;;;;;;5062644;28;20634;-52
2023/04/14 00:07:02;;;;;;;2.60;1.97;;;;;;;;;;5068724;28;20652;-52
2023/04/14 00:09:28;;;;;;;2.90;1.70;;;;;;;;;;5068127;28;20258;-53
2023/04/14 00:11:56;;;;;;;3.37;2.17;;;;;;;;;;5069340;28;20827;-52
2023/04/14 00:14:22;;;;;;;2.37;1.63;;;;;;;;;;5067058;28;20199;-52
2023/04/14 00:16:49;;;;;;;1.73;1.60;;;;;;;;;;5062936;28;20687;-52
2023/04/14 00:19:16;;;;;;;2.40;1.80;;;;;;;;;;5057881;28;20679;-52
2023/04/14 00:21:42;;;;;;;2.47;1.80;;;;;;;;;;5067646;28;20212;-52
2023/04/14 00:24:08;;;;;;;1.83;1.60;;;;;;;;;;5065768;28;20209;-52
2023/04/14 00:26:34;;;;;;;1.77;1.67;;;;;;;;;;5062802;28;20180;-52
2023/04/14 00:29:01;;;;;;;2.47;1.80;;;;;;;;;;5063033;28;20644;-52
2023/04/14 00:31:27;;;;;;;3.50;1.60;;;;;;;;;;5067964;28;20192;-51
2023/04/14 00:33:53;;;;;;;2.47;2.17;;;;;;;;;;5066003;28;20177;-52
2023/04/14 00:36:19;;;;;;;3.50;1.93;;;;;;;;;;5067325;28;20181;-53
2023/04/14 00:38:46;;;;;;;3.40;1.50;;;;;;;;;;5064343;28;20188;-52
2023/04/14 00:41:12;;;;;;;2.70;1.80;;;;;;;;;;5070666;28;20173;-52
2023/04/14 00:43:38;;;;;;;3.50;2.23;;;;;;;;;;5068210;28;20193;-53
2023/04/14 00:46:05;;;;;;;2.67;1.77;;;;;;;;;;5069431;28;20181;-53
2023/04/14 00:48:32;;;;;;;1.60;1.50;;;;;;;;;;5066264;28;20540;-53
2023/04/14 00:51:01;;;;;;;1.80;1.70;;;;;;;;;;5066111;28;20169;-53
2023/04/14 00:53:28;;;;;;;2.57;1.70;;;;;;;;;;5067088;28;20184;-53
2023/04/14 00:55:55;;;;;;;2.73;1.53;;;;;;;;;;5065683;28;20185;-53
2023/04/14 00:58:21;;;;;;;3.00;1.70;;;;;;;;;;5062599;28;20192;-53
2023/04/14 01:00:52;;;;;;;5.17;2.33;;;;;;;;;;5067772;28;20192;-53
2023/04/14 01:03:20;;;;;;;2.93;1.77;;;;;;;;;;5066930;28;20639;-50
2023/04/14 01:05:46;;;;;;;2.30;1.70;;;;;;;;;;5067556;28;20199;-51
2023/04/14 01:08:13;;;;;;;3.73;2.03;;;;;;;;;;5064863;28;20313;-52
2023/04/14 01:10:41;;;;;;;1.90;1.50;;;;;;;;;;5066464;28;20237;-52
2023/04/14 01:13:32;;;;;;;3.23;1.77;;;;;;;;;;5069129;28;20184;-52
2023/04/14 01:16:00;;;;;;;2.20;1.60;;;;;;;;;;5063686;28;20177;-52
2023/04/14 01:18:37;;;;;;;2.07;1.87;;;;;;;;;;5065657;28;20676;-52
2023/04/14 01:21:10;;;;;;;2.00;1.80;;;;;;;;;;5061205;28;20659;-52
2023/04/14 01:23:41;;;;;;;3.00;1.73;;;;;;;;;;5063212;28;20187;-52
2023/04/14 01:26:15;;;;;;;2.60;1.80;;;;;;;;;;5062976;28;20195;-52
2023/04/14 01:29:03;;;;;;;2.10;1.90;;;;;;;;;;5062666;28;20253;-52
2023/04/14 01:31:31;;;;;;;2.80;1.60;;;;;;;;;;5066336;28;20179;-52
2023/04/14 01:33:57;;;;;;;4.13;1.70;;;;;;;;;;5063461;28;20551;-52
2023/04/14 01:36:26;;;;;;;2.07;1.50;;;;;;;;;;5061287;28;20180;-53
2023/04/14 01:38:53;;;;;;;3.77;1.70;;;;;;;;;;5046560;28;20237;-52
2023/04/14 01:41:21;;;;;;;2.00;1.80;;;;;;;;;;5068276;28;20663;-52
2023/04/14 01:43:49;;;;;;;2.10;1.77;;;;;;;;;;5063012;28;20183;-52
2023/04/14 01:46:16;;;;;;;4.97;2.03;;;;;;;;;;5067740;28;20173;-51
2023/04/14 01:48:43;;;;;;;2.20;1.60;;;;;;;;;;5063581;28;20189;-52
2023/04/14 01:51:09;;;;;;;4.03;1.90;;;;;;;;;;5065307;28;20533;-52
2023/04/14 01:53:37;;;;;;;2.40;1.67;;;;;;;;;;5062838;28;20267;-52
2023/04/14 01:56:04;;;;;;;3.57;1.93;;;;;;;;;;5062183;28;20253;-52
2023/04/14 01:58:30;;;;;;;1.60;1.50;;;;;;;;;;5065064;28;21860;-52
2023/04/14 02:00:58;;;;;;;2.60;1.70;;;;;;;;;;5065974;28;20754;-52
2023/04/14 02:03:25;;;;;;;1.63;1.30;;;;;;;;;;5061712;28;20208;-52
2023/04/14 02:05:53;;;;;;;1.83;1.43;;;;;;;;;;5058393;28;20192;-52
2023/04/14 02:08:21;;;;;;;4.17;1.60;;;;;;;;;;5062669;28;20234;-53
2023/04/14 02:10:48;;;;;;;2.17;1.37;;;;;;;;;;5058477;28;20792;-52
2023/04/14 02:13:16;;;;;;;2.47;1.80;;;;;;;;;;5066688;28;20269;-52
2023/04/14 02:15:43;;;;;;;1.90;1.70;;;;;;;;;;5060667;28;20583;-52
2023/04/14 02:18:09;;;;;;;2.57;1.70;;;;;;;;;;5067121;28;20671;-52
2023/04/14 02:20:41;;;;;;;1.70;1.60;;;;;;;;;;5060897;28;20180;-51
2023/04/14 02:23:07;;;;;;;2.70;1.70;;;;;;;;;;5062623;28;20216;-52
2023/04/14 02:25:34;;;;;;;1.50;1.40;;;;;;;;;;5060244;28;20278;-53
2023/04/14 02:28:03;;;;;;;3.23;1.70;;;;;;;;;;5065622;28;20180;-53
2023/04/14 02:30:32;;;;;;;2.00;1.80;;;;;;;;;;5063860;28;20627;-53
2023/04/14 02:33:10;;;;;;;2.30;1.50;;;;;;;;;;5065867;28;20168;-52
2023/04/14 02:35:42;;;;;;;2.00;1.83;;;;;;;;;;5062836;28;20191;-53
2023/04/14 02:38:13;;;;;;;2.63;1.37;;;;;;;;;;5060618;28;20647;-53
2023/04/14 02:40:41;;;;;;;2.03;1.83;;;;;;;;;;5059094;28;20192;-53
2023/04/14 02:43:11;;;;;;;2.27;1.70;;;;;;;;;;5062809;28;20181;-53
2023/04/14 02:45:40;;;;;;;2.23;1.60;;;;;;;;;;5061290;28;20204;-52
2023/04/14 02:48:13;;;;;;;1.87;1.60;;;;;;;;;;5061752;28;20216;-53
2023/04/14 02:50:42;;;;;;;2.50;1.43;;;;;;;;;;5063592;28;20555;-52
2023/04/14 02:53:09;;;;;;;3.87;2.13;;;;;;;;;;5058676;28;20278;-53
2023/04/14 02:55:36;;;;;;;1.70;1.53;;;;;;;;;;5063801;28;20317;-53
2023/04/14 02:58:03;;;;;;;3.80;1.60;;;;;;;;;;5068561;28;20495;-53
2023/04/14 03:00:32;;;;;;;2.40;1.90;;;;;;;;;;5049622;28;20196;-53
2023/04/14 03:03:00;;;;;;;3.40;2.40;;;;;;;;;;5062264;28;20188;-53
2023/04/14 03:05:27;;;;;;;1.77;1.60;;;;;;;;;;5058812;28;20282;-53
2023/04/14 03:07:54;;;;;;;2.13;1.53;;;;;;;;;;5061249;28;20265;-52
2023/04/14 03:10:22;;;;;;;2.77;1.43;;;;;;;;;;5065546;28;20570;-52
2023/04/14 03:12:49;;;;;;;2.77;1.67;;;;;;;;;;5066406;28;20283;-52
2023/04/14 03:15:16;;;;;;;1.67;1.57;;;;;;;;;;5064200;28;20526;-53
2023/04/14 03:17:44;;;;;;;3.33;1.97;;;;;;;;;;5070226;28;20256;-52
2023/04/14 03:20:12;;;;;;;2.60;1.60;;;;;;;;;;5070756;28;20269;-53
2023/04/14 03:22:39;;;;;;;1.57;1.47;;;;;;;;;;5069175;28;21039;-52
2023/04/14 03:25:06;;;;;;;2.40;1.50;;;;;;;;;;5062781;28;20216;-52
2023/04/14 03:27:33;;;;;;;2.40;1.50;;;;;;;;;;5067731;28;20185;-52
2023/04/14 03:30:05;;;;;;;3.30;1.80;;;;;;;;;;5067104;28;20208;-52
2023/04/14 03:32:40;;;;;;;2.50;1.63;;;;;;;;;;5061221;28;20603;-52
2023/04/14 03:35:08;;;;;;;2.37;1.60;;;;;;;;;;5063316;28;20208;-52
2023/04/14 03:37:36;;;;;;;3.40;1.77;;;;;;;;;;5068974;28;20181;-52
2023/04/14 03:40:04;;;;;;;1.43;1.33;;;;;;;;;;5065883;28;20184;-52
2023/04/14 03:42:31;;;;;;;2.37;1.70;;;;;;;;;;5069924;28;20679;-53
2023/04/14 03:44:59;;;;;;;2.47;1.80;;;;;;;;;;5071355;28;20695;-53
2023/04/14 03:47:29;;;;;;;2.90;1.73;;;;;;;;;;5071622;28;20204;-52
2023/04/14 03:50:00;;;;;;;1.73;1.63;;;;;;;;;;5069963;28;20616;-53
2023/04/14 03:52:26;;;;;;;1.97;1.47;;;;;;;;;;5066015;28;20180;-53
2023/04/14 03:54:55;;;;;;;1.43;1.20;;;;;;;;;;5059877;28;20192;-53
2023/04/14 03:57:25;;;;;;;3.03;1.70;;;;;;;;;;5066005;28;20223;-52
2023/04/14 03:59:53;;;;;;;1.70;1.60;;;;;;;;;;5062094;28;20188;-52
2023/04/14 04:02:21;;;;;;;2.43;2.23;;;;;;;;;;5063582;28;20180;-53
2023/04/14 04:04:48;;;;;;;2.90;1.70;;;;;;;;;;5069873;28;20219;-53
2023/04/14 04:07:15;;;;;;;3.07;2.77;;;;;;;;;;5064394;28;20616;-52
2023/04/14 04:09:42;;;;;;;4.33;2.30;;;;;;;;;;5069368;28;20184;-53
2023/04/14 04:12:10;;;;;;;3.03;1.60;;;;;;;;;;5067218;28;20196;-50
2023/04/14 04:14:41;;;;;;;2.67;1.60;;;;;;;;;;5048998;28;20291;-53
2023/04/14 04:17:07;;;;;;;2.63;2.23;;;;;;;;;;5065772;28;20544;-52
2023/04/14 04:19:35;;;;;;;3.40;1.37;;;;;;;;;;5069251;28;20267;-53
2023/04/14 04:22:01;;;;;;;1.57;1.30;;;;;;;;;;5067152;28;20743;-53
2023/04/14 04:24:29;;;;;;;1.53;1.43;;;;;;;;;;5066523;28;20618;-51
2023/04/14 04:26:55;;;;;;;3.03;1.50;;;;;;;;;;5066202;28;20191;-51
2023/04/14 04:29:22;;;;;;;3.17;1.47;;;;;;;;;;5062369;28;20177;-51
2023/04/14 04:31:49;;;;;;;2.53;1.40;;;;;;;;;;5065229;28;20400;-52
2023/04/14 04:34:17;;;;;;;2.83;2.63;;;;;;;;;;5068709;28;20188;-52
2023/04/14 04:36:44;;;;;;;1.50;1.40;;;;;;;;;;5065523;28;20184;-52
2023/04/14 04:39:10;;;;;;;3.47;1.70;;;;;;;;;;5067678;28;20188;-52
2023/04/14 04:41:36;;;;;;;1.87;1.50;;;;;;;;;;5062303;28;20223;-51
2023/04/14 04:44:02;;;;;;;1.83;1.40;;;;;;;;;;5065464;28;20192;-51
2023/04/14 04:46:35;;;;;;;2.30;1.63;;;;;;;;;;5059097;28;20207;-52
2023/04/14 04:49:01;;;;;;;2.87;1.70;;;;;;;;;;5065680;28;20219;-51
2023/04/14 04:51:27;;;;;;;2.10;1.90;;;;;;;;;;5067785;28;20191;-51
2023/04/14 04:53:54;;;;;;;2.10;1.63;;;;;;;;;;5062955;28;20181;-51
2023/04/14 04:56:20;;;;;;;2.40;1.50;;;;;;;;;;5063034;28;20207;-52
2023/04/14 04:58:47;;;;;;;3.40;1.73;;;;;;;;;;5068288;28;20632;-51
2023/04/14 05:01:14;;;;;;;1.63;1.53;;;;;;;;;;5064566;28;20268;-51
2023/04/14 05:03:44;;;;;;;1.70;1.57;;;;;;;;;;5063630;28;20195;-51
2023/04/14 05:06:10;;;;;;;2.60;1.93;;;;;;;;;;5062456;28;20207;-52
2023/04/14 05:08:37;;;;;;;2.93;1.43;;;;;;;;;;5066280;28;20165;-52
2023/04/14 05:11:03;;;;;;;3.43;1.53;;;;;;;;;;5061609;28;20288;-51
2023/04/14 05:13:30;;;;;;;1.53;1.40;;;;;;;;;;5068266;28;20313;-51
2023/04/14 05:16:10;;;;;;;2.13;1.80;;;;;;;;;;5067008;28;20176;-51
2023/04/14 05:18:36;;;;;;;1.80;1.57;;;;;;;;;;5065646;28;20222;-52
2023/04/14 05:21:06;;;;;;;3.20;1.83;;;;;;;;;;5067683;28;20679;-52
2023/04/14 05:23:32;;;;;;;3.17;1.70;;;;;;;;;;5066593;28;20656;-52
2023/04/14 05:26:02;;;;;;;3.53;1.77;;;;;;;;;;5065523;28;20209;-51
2023/04/14 05:28:29;;;;;;;2.63;1.87;;;;;;;;;;5063483;28;20180;-52
2023/04/14 05:30:55;;;;;;;2.27;1.97;;;;;;;;;;5064963;28;20271;-52
2023/04/14 05:33:21;;;;;;;2.57;1.87;;;;;;;;;;5067836;28;20180;-52
2023/04/14 05:35:49;;;;;;;2.87;2.00;;;;;;;;;;5061876;28;20188;-52
2023/04/14 05:38:15;;;;;;;2.10;1.90;;;;;;;;;;5065227;28;20678;-52
2023/04/14 05:40:42;;;;;;;3.03;1.63;;;;;;;;;;5064544;28;20543;-53
2023/04/14 05:43:08;;;;;;;2.30;1.80;;;;;;;;;;5061151;28;20195;-53
2023/04/14 05:45:34;;;;;;;2.53;2.10;;;;;;;;;;5067348;28;20242;-52
2023/04/14 05:48:00;;;;;;;3.03;2.03;;;;;;;;;;5064625;28;20177;-53
2023/04/14 05:50:26;;;;;;;2.87;1.77;;;;;;;;;;5062074;28;20218;-53
2023/04/14 05:52:52;;;;;;;3.43;2.03;;;;;;;;;;5059551;28;20184;-53
2023/04/14 05:55:19;;;;;;;3.03;2.10;;;;;;;;;;5061934;28;20242;-53
2023/04/14 05:57:46;;;;;;;3.90;2.37;;;;;;;;;;5065156;28;20365;-53
2023/04/14 06:00:13;;;;;;;3.70;2.10;;;;;;;;;;5065573;28;20238;-53
2023/04/14 06:02:39;;;;;;;3.40;1.80;;;;;;;;;;5065580;28;20234;-52
2023/04/14 06:05:06;;;;;;;2.37;2.13;;;;;;;;;;5064099;28;20671;-54
2023/04/14 06:07:35;;;;;;;2.30;1.80;;;;;;;;;;5044706;28;20172;-52
2023/04/14 06:10:02;;;;;;;2.73;2.50;;;;;;;;;;5066400;28;20188;-52
2023/04/14 06:12:28;;;;;;;2.30;2.10;;;;;;;;;;5059779;28;20230;-52
2023/04/14 06:15:00;;;;;;;2.73;2.13;;;;;;;;;;5058550;28;20650;-52
2023/04/14 06:17:27;;;;;;;4.33;2.30;;;;;;;;;;5066874;28;20670;-52
2023/04/14 06:19:53;;;;;;;2.67;2.40;;;;;;;;;;5067254;28;20206;-52
2023/04/14 06:22:19;;;;;;;2.67;2.13;;;;;;;;;;5063720;28;20635;-52
2023/04/14 06:24:45;;;;;;;3.23;2.33;;;;;;;;;;5065501;28;20299;-52
2023/04/14 06:27:11;;;;;;;3.80;2.40;;;;;;;;;;5060393;28;20216;-52
2023/04/14 06:29:38;;;;;;;3.00;2.27;;;;;;;;;;5062178;28;20169;-52
2023/04/14 06:32:04;;;;;;;2.27;2.00;;;;;;;;;;5061028;28;20264;-52
2023/04/14 06:34:30;;;;;;;2.33;2.03;;;;;;;;;;5063040;28;20181;-52
2023/04/14 06:36:57;;;;;;;3.90;2.50;;;;;;;;;;5056019;28;20590;-52
2023/04/14 06:39:24;;;;;;;4.37;2.70;;;;;;;;;;5062635;28;20176;-52
2023/04/14 06:41:50;;;;;;;2.57;2.10;;;;;;;;;;5063796;28;20393;-51
2023/04/14 06:44:19;;;;;;;3.40;2.40;;;;;;;;;;5064248;28;20197;-52
2023/04/14 06:46:48;;;;;;;3.80;2.60;;;;;;;;;;5058068;28;20215;-52
2023/04/14 06:49:16;;;;;;;3.53;2.87;;;;;;;;;;5066346;28;20581;-51
2023/04/14 06:51:42;;;;;;;4.63;2.80;;;;;;;;;;5061958;28;20184;-51
2023/04/14 06:54:08;;;;;;;3.40;2.57;;;;;;;;;;5055860;28;20188;-51
2023/04/14 06:56:34;;;;;;;2.70;2.27;;;;;;;;;;5060765;28;20656;-52
2023/04/14 06:59:01;;;;;;;6.87;3.33;;;;;;;;;;5063357;28;20664;-52
2023/04/14 07:01:27;;;;;;;4.10;2.60;;;;;;;;;;5064054;28;20204;-52
2023/04/14 07:03:54;;;;;;;3.73;2.63;;;;;;;;;;5064874;28;20222;-52
2023/04/14 07:06:20;;;;;;;2.83;2.43;;;;;;;;;;5050065;28;20526;-52
2023/04/14 07:08:47;;;;;;;3.40;2.73;;;;;;;;;;5066208;28;20181;-52
2023/04/14 07:11:13;;;;;;;4.03;3.00;;;;;;;;;;5063310;28;20352;-52
2023/04/14 07:13:40;;;;;;;2.63;2.43;;;;;;;;;;5064531;28;20805;-52
2023/04/14 07:16:06;;;;;;;2.70;2.47;;;;;;;;;;5064243;28;20188;-52
2023/04/14 07:18:32;;;;;;;4.67;2.77;;;;;;;;;;5058568;28;20188;-54
2023/04/14 07:20:59;;;;;;;5.83;3.00;;;;;;;;;;5058014;28;20215;-53
2023/04/14 07:23:26;;;;;;;3.93;3.13;;;;;;;;;;5059444;28;20227;-53
2023/04/14 07:25:56;;;;;;;4.40;2.90;;;;;;;;;;5061018;28;21002;-53
2023/04/14 07:28:23;;;;;;;3.87;2.77;;;;;;;;;;5067614;28;20942;-50
2023/04/14 07:30:49;;;;;;;5.60;2.87;;;;;;;;;;5065735;28;20192;-51
2023/04/14 07:33:20;;;;;;;5.43;2.60;;;;;;;;;;5066933;28;20193;-52
2023/04/14 07:35:47;;;;;;;6.23;3.07;;;;;;;;;;5063433;28;20180;-52
2023/04/14 07:38:14;;;;;;;5.93;2.37;;;;;;;;;;5056458;28;20224;-52
2023/04/14 07:40:40;;;;;;;3.43;2.43;;;;;;;;;;5055599;28;20203;-52
2023/04/14 07:43:07;;;;;;;3.73;2.27;;;;;;;;;;5063851;28;20184;-52
2023/04/14 07:45:33;;;;;;;4.20;2.30;;;;;;;;;;5066156;28;20763;-53
2023/04/14 07:47:59;;;;;;;7.80;2.70;;;;;;;;;;5065717;28;20672;-52
2023/04/14 07:50:25;;;;;;;7.13;2.97;;;;;;;;;;5064925;28;20524;-52
2023/04/14 07:52:51;;;;;;;4.47;2.40;;;;;;;;;;5066288;28;20218;-52
2023/04/14 07:55:18;;;;;;;5.43;2.50;;;;;;;;;;5061025;28;20189;-52
2023/04/14 07:57:44;;;;;;;5.80;2.90;;;;;;;;;;5068234;28;20188;-53
2023/04/14 08:00:11;;;;;;;3.37;2.57;;;;;;;;;;5063266;28;20212;-52
2023/04/14 08:02:37;;;;;;;6.03;2.67;;;;;;;;;;5064003;28;20614;-52
2023/04/14 08:05:04;;;;;;;2.47;2.27;;;;;;;;;;5064791;28;20211;-53
2023/04/14 08:07:31;;;;;;;5.20;2.80;;;;;;;;;;5070660;28;20663;-53
2023/04/14 08:09:57;;;;;;;3.93;2.43;;;;;;;;;;5061624;28;20204;-52
2023/04/14 08:12:24;;;;;;;4.23;2.03;;;;;;;;;;5062563;28;20209;-53
2023/04/14 08:14:55;;;;;;;4.73;2.63;;;;;;;;;;5067244;28;20538;-53
2023/04/14 08:17:22;;;;;;;4.47;2.17;;;;;;;;;;5070973;28;20199;-53
2023/04/14 08:19:52;;;;;;;4.93;2.57;;;;;;;;;;5066479;28;20184;-53
2023/04/14 08:22:18;;;;;;;3.27;2.43;;;;;;;;;;5066177;28;20224;-53
2023/04/14 08:24:44;;;;;;;5.80;2.50;;;;;;;;;;5063953;28;20224;-53
2023/04/14 08:27:11;;;;;;;4.27;2.53;;;;;;;;;;5068322;28;20185;-53
2023/04/14 08:29:37;;;;;;;3.33;2.90;;;;;;;;;;5067854;28;20180;-53
2023/04/14 08:32:06;;;;;;;4.77;2.30;;;;;;;;;;5068352;28;20191;-52
2023/04/14 08:34:33;;;;;;;4.97;2.70;;;;;;;;;;5066680;28;20173;-53
2023/04/14 08:36:59;;;;;;;4.03;2.30;;;;;;;;;;5068017;28;20278;-53
2023/04/14 08:39:25;;;;;;;3.57;2.57;;;;;;;;;;5064850;28;20176;-53
2023/04/14 08:41:52;;;;;;;3.50;2.70;;;;;;;;;;5069510;28;20199;-53
2023/04/14 08:44:19;;;;;;;3.93;2.60;;;;;;;;;;5066295;28;20216;-53
2023/04/14 08:46:51;;;;;;;2.70;2.30;;;;;;;;;;5068040;28;20172;-53
2023/04/14 08:49:24;;;;;;;3.63;2.27;;;;;;;;;;5069748;28;20643;-53
2023/04/14 08:51:51;;;;;;;5.07;2.70;;;;;;;;;;5066427;28;20572;-53
2023/04/14 08:54:18;;;;;;;5.83;2.70;;;;;;;;;;5059360;28;20385;-53
2023/04/14 08:56:45;;;;;;;3.40;2.43;;;;;;;;;;5050148;28;20185;-53
2023/04/14 08:59:11;;;;;;;4.97;2.57;;;;;;;;;;5069809;28;20215;-53
2023/04/14 09:01:38;;;;;;;3.40;2.27;;;;;;;;;;5066624;28;20203;-53
2023/04/14 09:04:05;;;;;;;3.27;2.47;;;;;;;;;;5066283;28;20196;-53
2023/04/14 09:06:35;;;;;;;4.20;2.47;;;;;;;;;;5067582;28;20181;-54
2023/04/14 09:09:03;;;;;;;4.37;2.23;;;;;;;;;;5066484;28;20184;-53
2023/04/14 09:11:30;;;;;;;5.30;2.87;;;;;;;;;;5054908;28;20499;-53
2023/04/14 09:13:58;;;;;;;5.00;2.30;;;;;;;;;;5063152;28;20640;-53
2023/04/14 09:16:26;;;;;;;2.63;2.10;;;;;;;;;;5062441;28;20199;-53
2023/04/14 09:18:53;;;;;;;5.37;2.43;;;;;;;;;;5046105;28;20195;-53
2023/04/14 09:21:19;;;;;;;2.67;2.20;;;;;;;;;;5062348;28;20216;-53
2023/04/14 09:23:46;;;;;;;3.70;2.17;;;;;;;;;;5066597;28;20199;-54
2023/04/14 09:26:12;;;;;;;5.13;2.60;;;;;;;;;;5068077;28;20696;-53
2023/04/14 09:28:40;;;;;;;3.80;2.17;;;;;;;;;;5063486;28;20184;-53
2023/04/14 09:31:07;;;;;;;5.57;2.43;;;;;;;;;;5063740;28;20237;-53
2023/04/14 09:33:37;;;;;;;2.47;2.23;;;;;;;;;;5063278;28;20208;-54
2023/04/14 09:36:04;;;;;;;2.90;1.90;;;;;;;;;;5065382;28;20180;-53
2023/04/14 09:38:38;;;;;;;3.60;2.50;;;;;;;;;;5068642;28;20265;-52
2023/04/14 09:41:07;;;;;;;5.03;2.17;;;;;;;;;;5067579;28;20283;-53
2023/04/14 09:43:35;;;;;;;3.93;2.20;;;;;;;;;;5057915;28;20186;-53
2023/04/14 09:46:07;;;;;;;6.23;3.27;;;;;;;;;;5063163;28;21120;-52
2023/04/14 09:48:35;;;;;;;4.37;2.00;;;;;;;;;;5063717;28;20185;-52
2023/04/14 09:51:02;;;;;;;9.27;2.33;;;;;;;;;;5063916;28;20187;-52
2023/04/14 09:53:29;;;;;;;5.27;2.33;;;;;;;;;;5065354;28;20650;-52
2023/04/14 09:55:58;;;;;;;7.13;2.77;;;;;;;;;;5062692;28;20597;-52
2023/04/14 09:58:28;;;;;;;14.10;3.00;;;;;;;;;;5065746;28;20222;-53
2023/04/14 10:00:56;;;;;;;5.97;1.93;;;;;;;;;;5065707;28;20180;-53
2023/04/14 10:03:51;;;;;;;9.10;2.50;;;;;;;;;;5067768;28;20743;-53
2023/04/14 10:06:19;;;;;;;5.50;3.10;;;;;;;;;;5031354;28;20231;-53
2023/04/14 10:08:50;;;;;;;5.13;2.63;;;;;;;;;;5058425;28;20639;-52
2023/04/14 10:11:21;;;;;;;4.60;2.13;;;;;;;;;;5047272;28;20193;-53
2023/04/14 10:13:49;;;;;;;5.27;2.00;;;;;;;;;;5061077;28;20184;-53
2023/04/14 10:16:16;;;;;;;4.07;2.00;;;;;;;;;;5067197;28;20177;-54
2023/04/14 10:18:43;;;;;;;5.17;2.37;;;;;;;;;;5059334;28;20264;-54
2023/04/14 10:21:10;;;;;;;17.40;4.10;;;;;;;;;;5060765;28;20180;-55
2023/04/14 10:23:38;;;;;;;5.27;2.47;;;;;;;;;;5060863;28;20191;-56
2023/04/14 10:26:06;;;;;;;4.67;2.53;;;;;;;;;;5065045;28;20211;-53
2023/04/14 10:28:34;;;;;;;2.90;1.83;;;;;;;;;;5058759;28;20219;-54
2023/04/14 10:31:01;;;;;;;5.80;2.10;;;;;;;;;;5066672;28;20314;-54
2023/04/14 10:33:28;;;;;;;3.33;2.20;;;;;;;;;;5062254;28;20172;-54
2023/04/14 10:36:00;;;;;;;3.90;2.17;;;;;;;;;;5046372;28;20176;-54
2023/04/14 10:38:44;;;;;;;5.00;2.20;;;;;;;;;;5062144;28;20263;-55
2023/04/14 10:41:11;;;;;;;6.37;2.70;;;;;;;;;;5063416;28;20265;-54
2023/04/14 10:43:38;;;;;;;5.87;2.43;;;;;;;;;;5066573;28;20652;-55
2023/04/14 10:46:06;;;;;;;3.57;2.10;;;;;;;;;;5068638;28;20208;-54
2023/04/14 10:48:34;;;;;;;3.73;2.17;;;;;;;;;;5060145;28;20601;-54
2023/04/14 10:51:05;;;;;;;5.27;1.87;;;;;;;;;;5057648;28;20533;-54
2023/04/14 10:53:38;;;;;;;4.17;3.03;;;;;;;;;;5055592;28;20187;-54
2023/04/14 10:56:06;;;;;;;7.63;2.60;;;;;;;;;;5062603;28;20211;-54
2023/04/14 10:58:35;;;;;;;4.80;2.30;;;;;;;;;;5056210;28;20218;-54
2023/04/14 11:01:21;;;;;;;6.13;2.30;;;;;;;;;;5056320;28;20688;-56
2023/04/14 11:03:48;;;;;;;23.43;4.00;;;;;;;;;;5056353;28;20208;-55
2023/04/14 11:06:34;;;;;;;32.10;3.50;;;;;;;;;;5048545;28;20732;-52
2023/04/14 11:09:02;;;;;;;6.00;2.50;;;;;;;;;;5064195;28;20442;-56
2023/04/14 11:11:28;;;;;;;;;;;;;;;;;;5066915;28;20851;-48
2023/04/14 11:13:54;;;;;;;;;;;;;;;;;;5064959;28;20016;-48
2023/04/14 11:16:20;;;;;;;;;;;;;;;;;;5062795;28;20368;-48
2023/04/14 11:18:47;;;;;;;;;;;;;;;;;;5064354;28;20289;-49
2023/04/14 11:21:13;;;;;;;;;;;;;;;;;;5059196;28;19948;-48
2023/04/14 11:23:40;;;;;;;;;;;;;;;;;;5053747;28;19916;-49
2023/04/14 11:26:06;;;;;;;;;;;;;;;;;;5038385;28;19964;-48
2023/04/14 11:28:32;;;;;;;;;;;;;;;;;;5052788;28;20050;-49
2023/04/14 11:30:58;;;;;;;;;;;;;;;;;;5057019;28;20353;-49
2023/04/14 11:33:25;;;;;;;;;;;;;;;;;;5059666;28;19913;-50
2023/04/14 11:35:51;;;;;;;;;;;;;;;;;;5064349;28;20002;-48
2023/04/14 11:38:17;;;;;;;;;;;;;;;;;;5062624;28;20320;-49
2023/04/14 11:40:43;;;;;;;;;;;;;;;;;;5064499;28;19912;-49
2023/04/14 11:43:09;;;;;;;;;;;;;;;;;;5063872;28;19913;-49
2023/04/14 11:45:36;;;;;;;;;;;;;;;;;;5054721;28;19923;-51
2023/04/14 11:48:02;;;;;;;;;;;;;;;;;;5061721;28;20309;-47
2023/04/14 11:50:29;;;;;;;;;;;;;;;;;;5063788;28;20283;-49
2023/04/14 11:52:58;;;;;;;;;;;;;;;;;;5067179;28;20364;-48
2023/04/14 11:55:25;;;;;;;;;;;;;;;;;;5049059;28;19913;-47
2023/04/14 11:57:51;;;;;;;;;;;;;;;;;;5062455;28;20010;-48
2023/04/14 12:00:18;;;;;;;;;;;;;;;;;;5069747;28;20382;-48
2023/04/14 12:02:44;;;;;;;;;;;;;;;;;;5058525;28;20376;-49
2023/04/14 12:05:10;;;;;;;;;;;;;;;;;;5041689;28;19917;-47
2023/04/14 12:07:38;;;;;;;;;;;;;;;;;;5065293;28;19978;-49
2023/04/14 12:10:04;;;;;;;;;;;;;;;;;;5068631;28;19958;-50
2023/04/14 12:12:30;;;;;;;;;;;;;;;;;;5062424;28;19924;-47
2023/04/14 12:14:56;;;;;;;;;;;;;;;;;;5063745;28;19935;-47
2023/04/14 12:17:22;;;;;;;;;;;;;;;;;;5063043;28;20541;-47
2023/04/14 12:19:49;;;;;;;;;;;;;;;;;;5062077;28;19927;-47
2023/04/14 12:22:15;;;;;;;;;;;;;;;;;;5068956;28;19925;-47
2023/04/14 12:24:41;;;;;;;;;;;;;;;;;;5059323;28;20341;-48
2023/04/14 12:27:08;;;;;;;;;;;;;;;;;;5045171;28;19916;-47
2023/04/14 12:29:34;;;;;;;;;;;;;;;;;;5063316;28;19913;-48
2023/04/14 12:32:01;;;;;;;;;;;;;;;;;;5066388;28;19924;-47
2023/04/14 12:34:28;;;;;;;;;;;;;;;;;;5069569;28;19919;-48
2023/04/14 12:36:55;;;;;;;;;;;;;;;;;;5062147;28;19924;-48
2023/04/14 12:39:21;;;;;;;;;;;;;;;;;;5059383;28;19966;-47
2023/04/14 12:41:47;;;;;;;;;;;;;;;;;;5062792;28;20395;-48
2023/04/14 12:44:13;;;;;;;;;;;;;;;;;;5066608;28;20354;-48
2023/04/14 12:46:39;;;;;;;;;;;;;;;;;;5065707;28;19950;-47
2023/04/14 12:49:06;;;;;;;;;;;;;;;;;;5065352;28;19999;-47
2023/04/14 12:51:32;;;;;;;;;;;;;;;;;;5069129;28;19917;-47
2023/04/14 12:53:58;;;;;;;;;;;;;;;;;;5062409;28;19916;-49
2023/04/14 12:56:26;;;;;;;;;;;;;;;;;;5043597;28;20391;-48
2023/04/14 12:58:54;;;;;;;;;;;;;;;;;;5055228;28;19916;-46
2023/04/14 13:01:20;;;;;;;;;;;;;;;;;;5061784;28;19913;-47
2023/04/14 13:03:48;;;;;;;;;;;;;;;;;;5061858;28;19921;-53
2023/04/14 13:06:17;;;;;;;;;;;;;;;;;;5058082;28;19920;-48
2023/04/14 13:08:43;;;;;;;;;;;;;;;;;;5058001;28;19916;-48
2023/04/14 13:11:10;;;;;;;;;;;;;;;;;;5068538;28;19965;-49
2023/04/14 13:13:36;;;;;;;;;;;;;;;;;;5066679;28;20288;-48
2023/04/14 13:16:02;;;;;;;;;;;;;;;;;;5061302;28;20440;-48
2023/04/14 13:18:28;;;;;;;;;;;;;;;;;;5063528;28;20043;-48
2023/04/14 13:20:54;;;;;;;;;;;;;;;;;;5056850;28;19965;-46
2023/04/14 13:23:21;;;;;;;;;;;;;;;;;;5066443;28;20084;-48
2023/04/14 13:25:47;;;;;;;;;;;;;;;;;;5066383;28;20034;-48
2023/04/14 13:28:14;;;;;;;;;;;;;;;;;;5067843;28;19923;-48
2023/04/14 13:30:43;;;;;;;;;;;;;;;;;;5061369;28;19919;-49
2023/04/14 13:33:09;;;;;;;;;;;;;;;;;;5068445;28;19951;-47
2023/04/14 13:35:36;;;;;;;;;;;;;;;;;;5056595;28;20365;-48
2023/04/14 13:38:03;;;;;;;;;;;;;;;;;;5064276;28;19982;-48
2023/04/14 13:40:29;;;;;;;;;;;;;;;;;;5069307;28;19935;-48
2023/04/14 13:42:56;;;;;;;;;;;;;;;;;;5065797;28;19966;-48
2023/04/14 13:45:23;;;;;;;;;;;;;;;;;;5063787;28;19920;-48
2023/04/14 13:47:49;;;;;;;;;;;;;;;;;;5068204;28;19916;-47
2023/04/14 13:50:15;;;;;;;;;;;;;;;;;;5064038;28;20005;-48
2023/04/14 13:52:41;;;;;;;;;;;;;;;;;;5064400;28;19920;-48
2023/04/14 13:55:08;;;;;;;;;;;;;;;;;;5064012;28;19912;-48
2023/04/14 13:57:34;;;;;;;;;;;;;;;;;;5055381;28;19916;-48
2023/04/14 14:00:00;;;;;;;;;;;;;;;;;;5060091;28;19955;-46
2023/04/14 14:02:27;;;;;;;;;;;;;;;;;;5065058;28;20261;-50
2023/04/14 14:04:53;;;;;;;;;;;;;;;;;;5063670;28;19959;-45
2023/04/14 14:07:20;;;;;;;;;;;;;;;;;;5065601;28;19921;-48
2023/04/14 14:09:46;;;;;;;;;;;;;;;;;;5063829;28;19916;-46
2023/04/14 14:12:12;;;;;;;;;;;;;;;;;;5067896;28;20185;-46
2023/04/14 14:14:38;;;;;;;;;;;;;;;;;;5062098;28;20151;-46
2023/04/14 14:17:04;;;;;;;;;;;;;;;;;;5058300;28;19956;-49
2023/04/14 14:19:30;;;;;;;;;;;;;;;;;;5063940;28;19916;-46
2023/04/14 14:21:56;;;;;;;;;;;;;;;;;;5057682;28;19966;-46
2023/04/14 14:24:22;;;;;;;;;;;;;;;;;;5063742;28;19920;-46
2023/04/14 14:26:50;;;;;;;;;;;;;;;;;;5061354;28;19936;-46
2023/04/14 14:29:17;;;;;;;;;;;;;;;;;;5065440;28;19917;-48
2023/04/14 14:31:43;;;;;;;;;;;;;;;;;;5054820;28;19960;-46
2023/04/14 14:34:09;;;;;;;;;;;;;;;;;;5061714;28;19920;-46
2023/04/14 14:36:35;;;;;;;;;;;;;;;;;;5059491;28;20038;-45
2023/04/14 14:39:02;;;;;;;;;;;;;;;;;;5059909;28;19920;-47
2023/04/14 14:41:28;;;;;;;;;;;;;;;;;;5061318;28;19912;-47
2023/04/14 14:43:54;;;;;;;;;;;;;;;;;;5057350;28;19916;-47
2023/04/14 14:46:22;;;;;;;;;;;;;;;;;;5052007;28;20535;-47
2023/04/14 14:48:48;;;;;;;;;;;;;;;;;;5054117;28;19917;-46
2023/04/14 14:51:14;;;;;;;;;;;;;;;;;;5068478;28;21338;-47
2023/04/14 14:53:40;;;;;;;;;;;;;;;;;;5055443;28;19928;-47
2023/04/14 14:56:06;;;;;;;;;;;;;;;;;;5067429;28;19916;-47
2023/04/14 14:58:33;;;;;;;;;;;;;;;;;;5065192;28;20031;-47
2023/04/14 15:00:59;;;;;;;;;;;;;;;;;;5066471;28;19916;-47
2023/04/14 15:03:25;;;;;;;;;;;;;;;;;;5061354;28;20376;-47
2023/04/14 15:05:52;;;;;;;;;;;;;;;;;;5067348;28;19916;-46
2023/04/14 15:08:18;;;;;;;;;;;;;;;;;;5067537;28;19921;-47
2023/04/14 15:10:44;;;;;;;;;;;;;;;;;;5063696;28;19920;-49
2023/04/14 15:13:11;;;;;;;;;;;;;;;;;;5070277;28;19950;-46
2023/04/14 15:15:37;;;;;;;;;;;;;;;;;;5049391;28;19916;-46